Star Pride — 9V9351 — position and weather

sailwx.info

Track history (hours):
 
Tides and Currents Weather Stations Pressure Air Temp Water Temp Dewpoint Dewpoint Depression Visibility Wind Speed Wind Dir Waves Ship Positions

Star Pride

Last reported at 2017-Sep-15 20:25 UTC. Time now 2017-Sep-23 05:56 UTC.
Position N 21°03' W 113°33'.

Length 163 m; draft 7.5 m.

Type: Cargo ship. MMSI: 566090000.

Date/timePositionNaut miles runAvg speedWind from/ knotsBaromVisibWave heightAir tempDewpointWater temp
2017-Sep-15 20:25N 21°03' W 113°33'6120.8
2017-Sep-15 17:29N 21°58' W 114°02'8421.0
2017-Sep-15 13:29N 23°13' W 114°41'3221.1
2017-Sep-15 11:59N 23°42' W 114°56'3821.2
2017-Sep-15 10:11N 24°17' W 115°14'1120.9
2017-Sep-15 09:39N 24°27' W 115°19'321.0
2017-Sep-15 09:31N 24°29' W 115°21'1121.0
2017-Sep-15 09:00N 24°39' W 115°25'1120.9
2017-Sep-15 08:30N 24°48' W 115°30'1021.1
2017-Sep-15 08:00N 24°58' W 115°35'43820.4
2017-Sep-14 10:33N 31°60' W 117°49'220.4
2017-Sep-14 10:29N 32°01' W 117°49'919.2
2017-Sep-14 10:00N 32°10' W 117°50'714.7
2017-Sep-14 09:30N 32°18' W 117°50'815.3
2017-Sep-14 09:00N 32°25' W 117°49'1020.1
2017-Sep-14 08:30N 32°35' W 117°48'1020.0
2017-Sep-14 08:00N 32°45' W 117°49'917.3
2017-Sep-14 07:30N 32°53' W 117°54'510.1
2017-Sep-14 07:00N 32°58' W 117°57'918.0
2017-Sep-14 06:30N 33°06' W 118°01'815.8
2017-Sep-14 06:00N 33°13' W 118°04'612.4
2017-Sep-14 05:30N 33°19' W 118°07'612.6
2017-Sep-14 05:00N 33°25' W 118°09'612.8
2017-Sep-14 04:30N 33°31' W 118°12'510.8
2017-Sep-14 04:00N 33°37' W 118°13'4 9.0
2017-Sep-14 03:30N 33°41' W 118°11'3 6.8
2017-Sep-14 03:00N 33°44' W 118°13'0 0.4
2017-Sep-14 02:28N 33°44' W 118°13'0 0.0
2017-Sep-14 01:58N 33°44' W 118°13'0 0.0
2017-Sep-14 01:22N 33°44' W 118°13'0 0.0
2017-Sep-14 00:52N 33°44' W 118°13'0 0.0
2017-Sep-14 00:25N 33°44' W 118°13'0 0.0
2017-Sep-13 23:58N 33°44' W 118°13'0 0.0
2017-Sep-13 23:07N 33°44' W 118°13'0 0.1
2017-Sep-13 22:58N 33°44' W 118°13'0 0.0
2017-Sep-13 22:28N 33°44' W 118°13'0 0.0
2017-Sep-13 21:58N 33°44' W 118°13'0 0.0
2017-Sep-13 21:28N 33°44' W 118°13'0 0.0
2017-Sep-13 20:58N 33°44' W 118°13'0 0.0
2017-Sep-13 20:28N 33°44' W 118°13'0 0.0
2017-Sep-13 19:55N 33°44' W 118°13'0 0.1
2017-Sep-13 19:25N 33°44' W 118°13'0 0.1
2017-Sep-13 18:49N 33°44' W 118°13'1 2.3
2017-Sep-13 18:30N 33°44' W 118°12'5 9.4
2017-Sep-13 18:00N 33°39' W 118°11'4 7.4
2017-Sep-13 17:30N 33°37' W 118°14'4 8.7
2017-Sep-13 17:00N 33°36' W 118°19'612.3
2017-Sep-13 16:29N 33°38' W 118°27'611.8
2017-Sep-13 16:00N 33°41' W 118°32'611.7
2017-Sep-13 15:30N 33°44' W 118°38'612.5
2017-Sep-13 15:00N 33°48' W 118°45'712.7
2017-Sep-13 14:29N 33°51' W 118°51'613.6
2017-Sep-13 14:00N 33°54' W 118°58'713.5
2017-Sep-13 13:30N 33°57' W 119°06'712.8
2017-Sep-13 13:00N 34°00' W 119°12'5 9.9
2017-Sep-13 12:27N 34°05' W 119°15'4 9.4
2017-Sep-13 12:00N 34°09' W 119°12'0 0.4
2017-Sep-13 11:28N 34°09' W 119°12'0 0.0
2017-Sep-13 09:28N 34°09' W 119°12'0 0.0
2017-Sep-13 08:58N 34°09' W 119°12'0 0.1
2017-Sep-13 08:04N 34°09' W 119°12'0 0.3
2017-Sep-13 07:52N 34°09' W 119°12'0 0.1
2017-Sep-13 07:25N 34°09' W 119°12'0 0.1
2017-Sep-13 06:52N 34°09' W 119°12'0 0.0
2017-Sep-13 06:28N 34°09' W 119°12'0 0.0
2017-Sep-13 05:58N 34°09' W 119°12'0 0.0
2017-Sep-13 05:28N 34°09' W 119°12'0 0.0
2017-Sep-13 04:55N 34°09' W 119°12'0 0.0
2017-Sep-13 04:22N 34°09' W 119°12'0 0.0
2017-Sep-13 03:52N 34°09' W 119°12'0 0.0
2017-Sep-13 03:28N 34°09' W 119°12'0 0.0
2017-Sep-13 02:58N 34°09' W 119°12'0 0.0
2017-Sep-13 02:22N 34°09' W 119°12'0 0.0
2017-Sep-13 01:58N 34°09' W 119°12'0 0.0
2017-Sep-13 01:22N 34°09' W 119°12'0 0.0
2017-Sep-13 00:46N 34°09' W 119°12'0 0.0
2017-Sep-13 00:28N 34°09' W 119°12'0 0.0
2017-Sep-12 22:52N 34°09' W 119°12'0 0.0
2017-Sep-12 22:22N 34°09' W 119°12'0 0.0
2017-Sep-12 21:55N 34°09' W 119°12'0 0.0
2017-Sep-12 21:28N 34°09' W 119°12'0 0.0
2017-Sep-12 20:46N 34°09' W 119°12'0 0.0
2017-Sep-12 19:13N 34°09' W 119°12'0 0.1
2017-Sep-12 18:16N 34°09' W 119°12'0 0.0
2017-Sep-12 17:58N 34°09' W 119°12'0 0.0
2017-Sep-12 16:46N 34°09' W 119°12'0 0.0
2017-Sep-12 16:28N 34°09' W 119°12'0 0.0
2017-Sep-12 15:58N 34°09' W 119°12'0 0.0
2017-Sep-12 15:28N 34°09' W 119°12'0 0.0
2017-Sep-12 14:58N 34°09' W 119°12'0 0.0
2017-Sep-12 14:28N 34°09' W 119°12'0 0.0
2017-Sep-12 13:58N 34°09' W 119°12'0 0.0
2017-Sep-12 13:28N 34°09' W 119°12'0 0.0
2017-Sep-12 12:49N 34°09' W 119°12'0 0.0
2017-Sep-12 12:28N 34°09' W 119°12'0 0.0
2017-Sep-12 11:52N 34°09' W 119°12'0 0.0
2017-Sep-12 11:28N 34°09' W 119°12'0 0.0
2017-Sep-12 10:58N 34°09' W 119°12'0 0.0
2017-Sep-12 10:28N 34°09' W 119°12'0 0.1
2017-Sep-12 09:58N 34°09' W 119°12'0 0.1
2017-Sep-12 09:28N 34°09' W 119°12'0 0.0
2017-Sep-12 08:58N 34°09' W 119°12'0 0.0
2017-Sep-12 08:28N 34°09' W 119°12'0 0.0
2017-Sep-12 07:58N 34°09' W 119°12'0 0.0
2017-Sep-12 07:28N 34°09' W 119°12'0 0.0
2017-Sep-12 06:58N 34°09' W 119°12'0 0.0
2017-Sep-12 06:28N 34°09' W 119°12'0 0.0
2017-Sep-12 05:55N 34°09' W 119°12'0 0.0
2017-Sep-12 05:28N 34°09' W 119°12'0 0.0
2017-Sep-12 04:46N 34°09' W 119°12'0 0.0
2017-Sep-12 04:28N 34°09' W 119°12'0 0.0
2017-Sep-12 03:58N 34°09' W 119°12'0 0.0
2017-Sep-12 03:28N 34°09' W 119°12'0 0.0
2017-Sep-12 02:49N 34°09' W 119°12'0 0.0
2017-Sep-12 02:28N 34°09' W 119°12'0 0.0
2017-Sep-12 01:58N 34°09' W 119°12'0 0.0
2017-Sep-12 01:22N 34°09' W 119°12'0 0.0
2017-Sep-12 00:58N 34°09' W 119°12'0 0.0
2017-Sep-12 00:28N 34°09' W 119°12'0 0.0
2017-Sep-11 23:58N 34°09' W 119°12'0 0.0
2017-Sep-11 23:28N 34°09' W 119°12'0 0.0
2017-Sep-11 22:58N 34°09' W 119°12'0 0.0
2017-Sep-11 22:25N 34°09' W 119°12'0 0.0
2017-Sep-11 21:58N 34°09' W 119°12'0 0.0
2017-Sep-11 21:28N 34°09' W 119°12'0 0.0
2017-Sep-11 20:46N 34°09' W 119°12'0 0.0
2017-Sep-11 20:16N 34°09' W 119°12'0 0.0
2017-Sep-11 19:55N 34°09' W 119°12'0 0.0
2017-Sep-11 19:28N 34°09' W 119°12'0 0.0
2017-Sep-11 18:46N 34°09' W 119°12'0 0.0
2017-Sep-11 18:19N 34°09' W 119°12'0 0.0
2017-Sep-11 17:58N 34°09' W 119°12'0 0.0
2017-Sep-11 17:22N 34°09' W 119°12'0 0.0
2017-Sep-11 16:55N 34°09' W 119°12'0 0.0
2017-Sep-11 16:16N 34°09' W 119°12'0 0.0
2017-Sep-11 15:46N 34°09' W 119°12'0 0.0
2017-Sep-11 15:28N 34°09' W 119°12'0 0.0
2017-Sep-11 14:40N 34°09' W 119°12'0 0.0
2017-Sep-11 13:22N 34°09' W 119°12'0 0.3
2017-Sep-11 12:58N 34°09' W 119°12'0 0.0
2017-Sep-11 12:28N 34°09' W 119°12'0 0.0
2017-Sep-11 11:58N 34°09' W 119°12'0 0.0
2017-Sep-11 11:16N 34°09' W 119°12'0 0.2
2017-Sep-11 10:58N 34°09' W 119°12'0 0.1
2017-Sep-11 10:28N 34°09' W 119°12'0 0.0
2017-Sep-11 09:58N 34°09' W 119°12'0 0.0
2017-Sep-11 09:28N 34°09' W 119°12'0 0.0
2017-Sep-11 08:58N 34°09' W 119°12'0 0.0
2017-Sep-11 08:22N 34°09' W 119°12'0 0.0
2017-Sep-11 07:58N 34°09' W 119°12'0 0.0
2017-Sep-11 07:28N 34°09' W 119°12'0 0.0
2017-Sep-11 06:28N 34°09' W 119°12'0 0.0
2017-Sep-11 05:34N 34°09' W 119°12'0 0.1
2017-Sep-11 05:28N 34°09' W 119°12'0 0.0
2017-Sep-11 04:58N 34°09' W 119°12'0 0.0
2017-Sep-11 04:25N 34°09' W 119°12'0 0.1
2017-Sep-11 03:58N 34°09' W 119°12'0 0.1
2017-Sep-11 03:28N 34°09' W 119°12'0 0.0
2017-Sep-11 02:52N 34°09' W 119°12'0 0.1
2017-Sep-11 02:28N 34°09' W 119°12'0 0.0
2017-Sep-11 01:58N 34°09' W 119°12'0 0.1
2017-Sep-11 01:28N 34°09' W 119°12'0 0.0
2017-Sep-11 00:58N 34°09' W 119°12'0 0.0
2017-Sep-11 00:28N 34°09' W 119°12'0 0.0
2017-Sep-10 23:58N 34°09' W 119°12'0 0.1
2017-Sep-10 23:28N 34°09' W 119°12'0 0.1
2017-Sep-10 23:00N 34°09' W 119°12'3 5.4
2017-Sep-10 22:30N 34°07' W 119°14'4 7.5
2017-Sep-10 22:00N 34°03' W 119°13'5 9.3
2017-Sep-10 21:30N 33°59' W 119°11'611.5
2017-Sep-10 21:00N 33°53' W 119°13'3 6.5
2017-Sep-10 20:30N 33°50' W 119°14'3 6.6
2017-Sep-10 20:00N 33°48' W 119°12'815.2
2017-Sep-10 19:30N 33°42' W 119°06'816.6
2017-Sep-10 19:00N 33°36' W 118°58'816.3
2017-Sep-10 18:30N 33°31' W 118°51'815.9
2017-Sep-10 18:00N 33°26' W 118°43'816.4
2017-Sep-10 17:30N 33°19' W 118°37'816.2
2017-Sep-10 17:00N 33°13' W 118°32'816.5
2017-Sep-10 16:30N 33°06' W 118°26'816.2
2017-Sep-10 16:00N 32°60' W 118°20'816.3
2017-Sep-10 15:30N 32°53' W 118°14'816.3
2017-Sep-10 15:00N 32°47' W 118°08'1616.3
2017-Sep-10 14:00N 32°34' W 117°57'816.5
2017-Sep-10 13:30N 32°27' W 117°52'816.3
2017-Sep-10 13:00N 32°19' W 117°48'816.5
2017-Sep-10 12:30N 32°11' W 117°44'816.6
2017-Sep-10 12:00N 32°04' W 117°41'816.3
2017-Sep-10 11:30N 31°56' W 117°37'816.3
2017-Sep-10 11:00N 31°49' W 117°34'815.6
2017-Sep-10 10:30N 31°41' W 117°30'815.7
2017-Sep-10 10:00N 31°34' W 117°26'816.2
2017-Sep-10 09:30N 31°27' W 117°23'815.9
2017-Sep-10 09:00N 31°19' W 117°19'816.0
2017-Sep-10 08:30N 31°12' W 117°15'816.2
2017-Sep-10 08:00N 31°05' W 117°12'816.4
2017-Sep-10 07:30N 30°57' W 117°08'815.8
2017-Sep-10 07:00N 30°50' W 117°05'5 8.8
2017-Sep-10 06:28N 30°45' W 117°02'715.7
2017-Sep-10 06:00N 30°39' W 116°59'816.3
2017-Sep-10 05:30N 30°31' W 116°55'1216.3
2017-Sep-10 04:48N 30°20' W 116°50'616.5
2017-Sep-10 04:26N 30°15' W 116°48'4816.0
2017-Sep-10 01:27N 29°31' W 116°27'  
Track history (hours):
 
Tides and Currents Weather Stations Pressure Air Temp Water Temp Dewpoint Dewpoint Depression Visibility Wind Speed Wind Dir Waves Ship Positions

Star Pride

Last reported at 2017-Sep-15 20:25 UTC. Time now 2017-Sep-23 05:56 UTC.
Position N 21°03' W 113°33'.

Length 163 m; draft 7.5 m.

Type: Cargo ship. MMSI: 566090000.

Date/timePositionNaut miles runAvg speedWind from/ knotsBaromVisibWave heightAir tempDewpointWater temp
2017-Sep-15 20:25N 21°03' W 113°33'6120.8
2017-Sep-15 17:29N 21°58' W 114°02'8421.0
2017-Sep-15 13:29N 23°13' W 114°41'3221.1
2017-Sep-15 11:59N 23°42' W 114°56'3821.2
2017-Sep-15 10:11N 24°17' W 115°14'1120.9
2017-Sep-15 09:39N 24°27' W 115°19'321.0
2017-Sep-15 09:31N 24°29' W 115°21'1121.0
2017-Sep-15 09:00N 24°39' W 115°25'1120.9
2017-Sep-15 08:30N 24°48' W 115°30'1021.1
2017-Sep-15 08:00N 24°58' W 115°35'43820.4
2017-Sep-14 10:33N 31°60' W 117°49'220.4
2017-Sep-14 10:29N 32°01' W 117°49'919.2
2017-Sep-14 10:00N 32°10' W 117°50'714.7
2017-Sep-14 09:30N 32°18' W 117°50'815.3
2017-Sep-14 09:00N 32°25' W 117°49'1020.1
2017-Sep-14 08:30N 32°35' W 117°48'1020.0
2017-Sep-14 08:00N 32°45' W 117°49'917.3
2017-Sep-14 07:30N 32°53' W 117°54'510.1
2017-Sep-14 07:00N 32°58' W 117°57'918.0
2017-Sep-14 06:30N 33°06' W 118°01'815.8
2017-Sep-14 06:00N 33°13' W 118°04'612.4
2017-Sep-14 05:30N 33°19' W 118°07'612.6
2017-Sep-14 05:00N 33°25' W 118°09'612.8
2017-Sep-14 04:30N 33°31' W 118°12'510.8
2017-Sep-14 04:00N 33°37' W 118°13'4 9.0
2017-Sep-14 03:30N 33°41' W 118°11'3 6.8
2017-Sep-14 03:00N 33°44' W 118°13'0 0.4
2017-Sep-14 02:28N 33°44' W 118°13'0 0.0
2017-Sep-14 01:58N 33°44' W 118°13'0 0.0
2017-Sep-14 01:22N 33°44' W 118°13'0 0.0
2017-Sep-14 00:52N 33°44' W 118°13'0 0.0
2017-Sep-14 00:25N 33°44' W 118°13'0 0.0
2017-Sep-13 23:58N 33°44' W 118°13'0 0.0
2017-Sep-13 23:07N 33°44' W 118°13'0 0.1
2017-Sep-13 22:58N 33°44' W 118°13'0 0.0
2017-Sep-13 22:28N 33°44' W 118°13'0 0.0
2017-Sep-13 21:58N 33°44' W 118°13'0 0.0
2017-Sep-13 21:28N 33°44' W 118°13'0 0.0
2017-Sep-13 20:58N 33°44' W 118°13'0 0.0
2017-Sep-13 20:28N 33°44' W 118°13'0 0.0
2017-Sep-13 19:55N 33°44' W 118°13'0 0.1
2017-Sep-13 19:25N 33°44' W 118°13'0 0.1
2017-Sep-13 18:49N 33°44' W 118°13'1 2.3
2017-Sep-13 18:30N 33°44' W 118°12'5 9.4
2017-Sep-13 18:00N 33°39' W 118°11'4 7.4
2017-Sep-13 17:30N 33°37' W 118°14'4 8.7
2017-Sep-13 17:00N 33°36' W 118°19'612.3
2017-Sep-13 16:29N 33°38' W 118°27'611.8
2017-Sep-13 16:00N 33°41' W 118°32'611.7
2017-Sep-13 15:30N 33°44' W 118°38'612.5
2017-Sep-13 15:00N 33°48' W 118°45'712.7
2017-Sep-13 14:29N 33°51' W 118°51'613.6
2017-Sep-13 14:00N 33°54' W 118°58'713.5
2017-Sep-13 13:30N 33°57' W 119°06'712.8
2017-Sep-13 13:00N 34°00' W 119°12'5 9.9
2017-Sep-13 12:27N 34°05' W 119°15'4 9.4
2017-Sep-13 12:00N 34°09' W 119°12'0 0.4
2017-Sep-13 11:28N 34°09' W 119°12'0 0.0
2017-Sep-13 09:28N 34°09' W 119°12'0 0.0
2017-Sep-13 08:58N 34°09' W 119°12'0 0.1
2017-Sep-13 08:04N 34°09' W 119°12'0 0.3
2017-Sep-13 07:52N 34°09' W 119°12'0 0.1
2017-Sep-13 07:25N 34°09' W 119°12'0 0.1
2017-Sep-13 06:52N 34°09' W 119°12'0 0.0
2017-Sep-13 06:28N 34°09' W 119°12'0 0.0
2017-Sep-13 05:58N 34°09' W 119°12'0 0.0
2017-Sep-13 05:28N 34°09' W 119°12'0 0.0
2017-Sep-13 04:55N 34°09' W 119°12'0 0.0
2017-Sep-13 04:22N 34°09' W 119°12'0 0.0
2017-Sep-13 03:52N 34°09' W 119°12'0 0.0
2017-Sep-13 03:28N 34°09' W 119°12'0 0.0
2017-Sep-13 02:58N 34°09' W 119°12'0 0.0
2017-Sep-13 02:22N 34°09' W 119°12'0 0.0
2017-Sep-13 01:58N 34°09' W 119°12'0 0.0
2017-Sep-13 01:22N 34°09' W 119°12'0 0.0
2017-Sep-13 00:46N 34°09' W 119°12'0 0.0
2017-Sep-13 00:28N 34°09' W 119°12'0 0.0
2017-Sep-12 22:52N 34°09' W 119°12'0 0.0
2017-Sep-12 22:22N 34°09' W 119°12'0 0.0
2017-Sep-12 21:55N 34°09' W 119°12'0 0.0
2017-Sep-12 21:28N 34°09' W 119°12'0 0.0
2017-Sep-12 20:46N 34°09' W 119°12'0 0.0
2017-Sep-12 19:13N 34°09' W 119°12'0 0.1
2017-Sep-12 18:16N 34°09' W 119°12'0 0.0
2017-Sep-12 17:58N 34°09' W 119°12'0 0.0
2017-Sep-12 16:46N 34°09' W 119°12'0 0.0
2017-Sep-12 16:28N 34°09' W 119°12'0 0.0
2017-Sep-12 15:58N 34°09' W 119°12'0 0.0
2017-Sep-12 15:28N 34°09' W 119°12'0 0.0
2017-Sep-12 14:58N 34°09' W 119°12'0 0.0
2017-Sep-12 14:28N 34°09' W 119°12'0 0.0
2017-Sep-12 13:58N 34°09' W 119°12'0 0.0
2017-Sep-12 13:28N 34°09' W 119°12'0 0.0
2017-Sep-12 12:49N 34°09' W 119°12'0 0.0
2017-Sep-12 12:28N 34°09' W 119°12'0 0.0
2017-Sep-12 11:52N 34°09' W 119°12'0 0.0
2017-Sep-12 11:28N 34°09' W 119°12'0 0.0
2017-Sep-12 10:58N 34°09' W 119°12'0 0.0
2017-Sep-12 10:28N 34°09' W 119°12'0 0.1
2017-Sep-12 09:58N 34°09' W 119°12'0 0.1
2017-Sep-12 09:28N 34°09' W 119°12'0 0.0
2017-Sep-12 08:58N 34°09' W 119°12'0 0.0
2017-Sep-12 08:28N 34°09' W 119°12'0 0.0
2017-Sep-12 07:58N 34°09' W 119°12'0 0.0
2017-Sep-12 07:28N 34°09' W 119°12'0 0.0
2017-Sep-12 06:58N 34°09' W 119°12'0 0.0
2017-Sep-12 06:28N 34°09' W 119°12'0 0.0
2017-Sep-12 05:55N 34°09' W 119°12'0 0.0
2017-Sep-12 05:28N 34°09' W 119°12'0 0.0
2017-Sep-12 04:46N 34°09' W 119°12'0 0.0
2017-Sep-12 04:28N 34°09' W 119°12'0 0.0
2017-Sep-12 03:58N 34°09' W 119°12'0 0.0
2017-Sep-12 03:28N 34°09' W 119°12'0 0.0
2017-Sep-12 02:49N 34°09' W 119°12'0 0.0
2017-Sep-12 02:28N 34°09' W 119°12'0 0.0
2017-Sep-12 01:58N 34°09' W 119°12'0 0.0
2017-Sep-12 01:22N 34°09' W 119°12'0 0.0
2017-Sep-12 00:58N 34°09' W 119°12'0 0.0
2017-Sep-12 00:28N 34°09' W 119°12'0 0.0
2017-Sep-11 23:58N 34°09' W 119°12'0 0.0
2017-Sep-11 23:28N 34°09' W 119°12'0 0.0
2017-Sep-11 22:58N 34°09' W 119°12'0 0.0
2017-Sep-11 22:25N 34°09' W 119°12'0 0.0
2017-Sep-11 21:58N 34°09' W 119°12'0 0.0
2017-Sep-11 21:28N 34°09' W 119°12'0 0.0
2017-Sep-11 20:46N 34°09' W 119°12'0 0.0
2017-Sep-11 20:16N 34°09' W 119°12'0 0.0
2017-Sep-11 19:55N 34°09' W 119°12'0 0.0
2017-Sep-11 19:28N 34°09' W 119°12'0 0.0
2017-Sep-11 18:46N 34°09' W 119°12'0 0.0
2017-Sep-11 18:19N 34°09' W 119°12'0 0.0
2017-Sep-11 17:58N 34°09' W 119°12'0 0.0
2017-Sep-11 17:22N 34°09' W 119°12'0 0.0
2017-Sep-11 16:55N 34°09' W 119°12'0 0.0
2017-Sep-11 16:16N 34°09' W 119°12'0 0.0
2017-Sep-11 15:46N 34°09' W 119°12'0 0.0
2017-Sep-11 15:28N 34°09' W 119°12'0 0.0
2017-Sep-11 14:40N 34°09' W 119°12'0 0.0
2017-Sep-11 13:22N 34°09' W 119°12'0 0.3
2017-Sep-11 12:58N 34°09' W 119°12'0 0.0
2017-Sep-11 12:28N 34°09' W 119°12'0 0.0
2017-Sep-11 11:58N 34°09' W 119°12'0 0.0
2017-Sep-11 11:16N 34°09' W 119°12'0 0.2
2017-Sep-11 10:58N 34°09' W 119°12'0 0.1
2017-Sep-11 10:28N 34°09' W 119°12'0 0.0
2017-Sep-11 09:58N 34°09' W 119°12'0 0.0
2017-Sep-11 09:28N 34°09' W 119°12'0 0.0
2017-Sep-11 08:58N 34°09' W 119°12'0 0.0
2017-Sep-11 08:22N 34°09' W 119°12'0 0.0
2017-Sep-11 07:58N 34°09' W 119°12'0 0.0
2017-Sep-11 07:28N 34°09' W 119°12'0 0.0
2017-Sep-11 06:28N 34°09' W 119°12'0 0.0
2017-Sep-11 05:34N 34°09' W 119°12'0 0.1
2017-Sep-11 05:28N 34°09' W 119°12'0 0.0
2017-Sep-11 04:58N 34°09' W 119°12'0 0.0
2017-Sep-11 04:25N 34°09' W 119°12'0 0.1
2017-Sep-11 03:58N 34°09' W 119°12'0 0.1
2017-Sep-11 03:28N 34°09' W 119°12'0 0.0
2017-Sep-11 02:52N 34°09' W 119°12'0 0.1
2017-Sep-11 02:28N 34°09' W 119°12'0 0.0
2017-Sep-11 01:58N 34°09' W 119°12'0 0.1
2017-Sep-11 01:28N 34°09' W 119°12'0 0.0
2017-Sep-11 00:58N 34°09' W 119°12'0 0.0
2017-Sep-11 00:28N 34°09' W 119°12'0 0.0
2017-Sep-10 23:58N 34°09' W 119°12'0 0.1
2017-Sep-10 23:28N 34°09' W 119°12'0 0.1
2017-Sep-10 23:00N 34°09' W 119°12'3 5.4
2017-Sep-10 22:30N 34°07' W 119°14'4 7.5
2017-Sep-10 22:00N 34°03' W 119°13'5 9.3
2017-Sep-10 21:30N 33°59' W 119°11'611.5
2017-Sep-10 21:00N 33°53' W 119°13'3 6.5
2017-Sep-10 20:30N 33°50' W 119°14'3 6.6
2017-Sep-10 20:00N 33°48' W 119°12'815.2
2017-Sep-10 19:30N 33°42' W 119°06'816.6
2017-Sep-10 19:00N 33°36' W 118°58'816.3
2017-Sep-10 18:30N 33°31' W 118°51'815.9
2017-Sep-10 18:00N 33°26' W 118°43'816.4
2017-Sep-10 17:30N 33°19' W 118°37'816.2
2017-Sep-10 17:00N 33°13' W 118°32'816.5
2017-Sep-10 16:30N 33°06' W 118°26'816.2
2017-Sep-10 16:00N 32°60' W 118°20'816.3
2017-Sep-10 15:30N 32°53' W 118°14'816.3
2017-Sep-10 15:00N 32°47' W 118°08'1616.3
2017-Sep-10 14:00N 32°34' W 117°57'816.5
2017-Sep-10 13:30N 32°27' W 117°52'816.3
2017-Sep-10 13:00N 32°19' W 117°48'816.5
2017-Sep-10 12:30N 32°11' W 117°44'816.6
2017-Sep-10 12:00N 32°04' W 117°41'816.3
2017-Sep-10 11:30N 31°56' W 117°37'816.3
2017-Sep-10 11:00N 31°49' W 117°34'815.6
2017-Sep-10 10:30N 31°41' W 117°30'815.7
2017-Sep-10 10:00N 31°34' W 117°26'816.2
2017-Sep-10 09:30N 31°27' W 117°23'815.9
2017-Sep-10 09:00N 31°19' W 117°19'816.0
2017-Sep-10 08:30N 31°12' W 117°15'816.2
2017-Sep-10 08:00N 31°05' W 117°12'816.4
2017-Sep-10 07:30N 30°57' W 117°08'815.8
2017-Sep-10 07:00N 30°50' W 117°05'5 8.8
2017-Sep-10 06:28N 30°45' W 117°02'715.7
2017-Sep-10 06:00N 30°39' W 116°59'816.3
2017-Sep-10 05:30N 30°31' W 116°55'1216.3
2017-Sep-10 04:48N 30°20' W 116°50'616.5
2017-Sep-10 04:26N 30°15' W 116°48'4816.0
2017-Sep-10 01:27N 29°31' W 116°27'  

Dump ship's entire track history